Time;durP1;ratioP1;P1;durP2;ratioP2;P2;SDS_P1;SDS_P2;PMS_P1;PMS_P2;Temp;Humidity;BMP_temperature;BMP_pressure;BME280_temperature;BME280_humidity;BME280_pressure;Samples;Min_cycle;Max_cycle;Signal;HPM_P1;HPM_P2
2024/01/09 00:00:45;;;;;;;72.40;27.20;;;;;;;-12.92;79.34;102816.73;52339;1261;1100261;-83
2024/01/09 00:03:40;;;;;;;78.60;27.90;;;;;;;-12.93;79.17;102812.41;52483;1257;1101171;-84
2024/01/09 00:06:27;;;;;;;67.00;28.50;;;;;;;-12.93;78.69;102818.10;52443;1258;1101106;-83
2024/01/09 00:09:13;;;;;;;78.60;29.10;;;;;;;-12.93;79.06;102817.05;52554;1261;1100214;-84
2024/01/09 00:11:59;;;;;;;77.70;28.10;;;;;;;-12.95;79.05;102809.81;52303;1264;1101699;-83
2024/01/09 00:14:44;;;;;;;83.60;29.10;;;;;;;-12.96;78.87;102811.02;52584;1257;1101242;-83
2024/01/09 00:17:30;;;;;;;81.90;28.10;;;;;;;-12.96;79.11;102817.20;52552;1255;1101546;-83
2024/01/09 00:20:16;;;;;;;80.10;27.20;;;;;;;-12.95;79.18;102806.20;52543;1257;1100502;-83
2024/01/09 00:23:02;;;;;;;86.70;31.60;;;;;;;-12.95;79.11;102799.16;52422;1255;1101325;-83
2024/01/09 00:25:48;;;;;;;87.30;31.80;;;;;;;-12.93;78.88;102799.54;52453;1261;1101889;-83
2024/01/09 00:28:34;;;;;;;95.70;30.90;;;;;;;-12.93;78.92;102793.51;52394;1275;1101959;-82
2024/01/09 00:31:19;;;;;;;99.10;34.90;;;;;;;-12.92;79.23;102791.96;52349;1257;1100494;-82
2024/01/09 00:34:05;;;;;;;103.60;35.60;;;;;;;-12.93;79.24;102794.19;52435;1257;1100559;-82
2024/01/09 00:36:51;;;;;;;94.70;33.10;;;;;;;-12.95;78.99;102792.45;52460;1261;1101457;-83
2024/01/09 00:39:37;;;;;;;87.70;32.10;;;;;;;-12.97;78.86;102787.27;52593;1258;1100808;-83
2024/01/09 00:42:23;;;;;;;85.70;32.50;;;;;;;-12.98;79.12;102790.17;52609;1259;1101477;-82
2024/01/09 00:45:09;;;;;;;89.60;31.80;;;;;;;-12.98;79.03;102786.91;52351;1265;1100663;-82
2024/01/09 00:47:54;;;;;;;85.10;28.50;;;;;;;-12.96;79.11;102789.34;52338;1256;1100735;-82
2024/01/09 00:50:40;;;;;;;83.30;29.10;;;;;;;-12.97;78.90;102793.46;52382;1260;1101086;-82
2024/01/09 00:53:26;;;;;;;80.60;31.20;;;;;;;-12.97;79.16;102798.27;52452;1261;1100903;-83
2024/01/09 00:56:12;;;;;;;74.40;29.00;;;;;;;-12.97;79.43;102794.16;52505;1261;1101379;-82
2024/01/09 00:58:58;;;;;;;72.10;29.40;;;;;;;-12.96;79.22;102793.46;52379;1255;1100945;-81
2024/01/09 01:01:50;;;;;;;86.50;28.80;;;;;;;-12.95;79.34;102794.69;52629;1277;1101295;-82
2024/01/09 01:04:39;;;;;;;81.10;29.50;;;;;;;-12.95;79.25;102792.98;52636;1260;1100733;-83
2024/01/09 01:07:24;;;;;;;77.10;29.40;;;;;;;-12.96;78.96;102792.27;52555;1261;1101148;-83
2024/01/09 01:10:12;;;;;;;82.50;28.50;;;;;;;-12.96;79.29;102793.48;52533;1257;1101874;-83
2024/01/09 01:12:59;;;;;;;83.50;31.50;;;;;;;-12.95;79.26;102801.05;52458;1255;1100322;-82
2024/01/09 01:15:45;;;;;;;82.10;29.00;;;;;;;-12.96;79.08;102793.48;52481;1264;1101145;-82
2024/01/09 01:18:31;;;;;;;89.00;31.30;;;;;;;-12.97;78.78;102793.80;52527;1260;1101480;-83
2024/01/09 01:21:17;;;;;;;84.30;29.80;;;;;;;-12.95;79.15;102790.91;52668;1256;1101466;-82
2024/01/09 01:24:03;;;;;;;77.50;29.60;;;;;;;-12.95;79.14;102794.86;52440;1258;1101957;-83
2024/01/09 01:26:49;;;;;;;87.80;30.40;;;;;;;-12.95;78.99;102792.60;52480;1257;1101700;-84
2024/01/09 01:29:34;;;;;;;88.40;30.20;;;;;;;-12.95;79.31;102792.80;52564;1257;1100599;-84
2024/01/09 01:32:20;;;;;;;88.20;31.30;;;;;;;-12.94;79.43;102796.06;52527;1260;1101042;-82
2024/01/09 01:35:06;;;;;;;88.80;31.00;;;;;;;-12.94;79.33;102801.40;52495;1261;1100903;-83
2024/01/09 01:37:52;;;;;;;90.40;33.40;;;;;;;-12.94;79.04;102802.95;52518;1261;1102038;-82
2024/01/09 01:40:37;;;;;;;94.70;31.40;;;;;;;-12.94;79.03;102809.66;52403;1255;1101912;-83
2024/01/09 01:43:22;;;;;;;89.80;33.60;;;;;;;-12.94;79.01;102813.61;52609;1255;1101165;-83
2024/01/09 01:46:08;;;;;;;88.10;30.20;;;;;;;-12.95;78.93;102812.22;52517;1258;1101025;-83
2024/01/09 01:48:54;;;;;;;93.40;30.80;;;;;;;-12.97;78.73;102807.21;52543;1257;1100892;-83
2024/01/09 01:51:42;;;;;;;87.20;30.60;;;;;;;-12.98;78.99;102813.04;52447;1255;1100622;-83
2024/01/09 01:54:30;;;;;;;92.00;31.90;;;;;;;-12.99;79.09;102813.04;52404;1258;1100277;-83
2024/01/09 01:57:15;;;;;;;93.70;30.90;;;;;;;-12.99;78.91;102816.98;52416;1260;1100727;-83
2024/01/09 02:00:02;;;;;;;82.60;30.60;;;;;;;-13.02;78.82;102820.25;52590;1257;1100494;-84
2024/01/09 02:02:57;;;;;;;94.90;33.10;;;;;;;-13.04;78.88;102827.25;52353;1257;1100999;-83
2024/01/09 02:05:44;;;;;;;84.80;31.40;;;;;;;-13.06;78.52;102823.66;52476;1261;1100631;-83
2024/01/09 02:08:30;;;;;;;91.40;33.00;;;;;;;-13.08;78.79;102824.67;52558;1255;1101129;-84
2024/01/09 02:11:17;;;;;;;81.40;30.50;;;;;;;-13.10;78.66;102820.54;52580;1255;1101361;-84
2024/01/09 02:14:02;;;;;;;87.30;31.00;;;;;;;-13.11;78.53;102824.98;52406;1260;1100970;-83
2024/01/09 02:16:48;;;;;;;89.30;33.50;;;;;;;-13.13;78.77;102827.39;52548;1255;1100822;-84
2024/01/09 02:19:34;;;;;;;73.20;29.90;;;;;;;-13.11;78.79;102827.92;52559;1255;1101788;-83
2024/01/09 02:22:20;;;;;;;99.30;31.40;;;;;;;-13.12;78.57;102822.73;52557;1261;1101696;-82
2024/01/09 02:25:06;;;;;;;85.50;32.00;;;;;;;-13.12;78.83;102827.73;52405;1258;1101188;-83
2024/01/09 02:28:22;;;;;;;78.90;29.80;;;;;;;-13.12;78.29;102823.09;52488;1255;1100514;-82
2024/01/09 02:31:09;;;;;;;82.70;28.50;;;;;;;-13.13;78.28;102827.20;52631;1257;1101019;-83
2024/01/09 02:33:57;;;;;;;86.90;29.90;;;;;;;-13.13;78.46;102826.70;52632;1258;1101481;-83
2024/01/09 02:36:43;;;;;;;77.20;27.60;;;;;;;-13.16;78.62;102832.84;52526;1263;1101231;-82
2024/01/09 02:39:29;;;;;;;77.10;27.40;;;;;;;-13.20;78.17;102831.60;52611;1257;1101231;-83
2024/01/09 02:42:15;;;;;;;75.40;27.90;;;;;;;-13.25;78.04;102831.36;52521;1256;1100919;-82
2024/01/09 02:45:02;;;;;;;81.30;28.40;;;;;;;-13.29;78.19;102833.91;52451;1257;1100444;-85
2024/01/09 02:47:48;;;;;;;79.00;28.60;;;;;;;-13.26;78.69;102834.63;52480;1255;1100651;-83
2024/01/09 02:50:33;;;;;;;83.20;28.30;;;;;;;-13.26;78.55;102840.63;52596;1256;1101150;-82
2024/01/09 02:53:19;;;;;;;78.40;28.90;;;;;;;-13.32;78.57;102837.81;52346;1260;1100849;-83
2024/01/09 02:56:06;;;;;;;88.00;27.40;;;;;;;-13.33;78.75;102840.39;52399;1258;1100614;-83
2024/01/09 02:58:51;;;;;;;74.10;27.40;;;;;;;-13.31;78.95;102835.26;52414;1255;1101524;-83
2024/01/09 03:01:37;;;;;;;78.90;27.40;;;;;;;-13.30;78.72;102833.55;52448;1261;1101948;-82
2024/01/09 03:04:22;;;;;;;85.20;30.20;;;;;;;-13.30;78.74;102834.40;52576;1256;1100567;-83
2024/01/09 03:07:08;;;;;;;95.70;28.90;;;;;;;-13.33;78.50;102837.98;52453;1256;1101380;-82
2024/01/09 03:09:54;;;;;;;79.90;27.50;;;;;;;-13.33;78.46;102835.92;52288;1255;1100590;-83
2024/01/09 03:12:39;;;;;;;79.90;29.50;;;;;;;-13.34;78.58;102829.55;52543;1255;1101540;-83
2024/01/09 03:15:25;;;;;;;71.10;26.70;;;;;;;-13.33;78.80;102831.61;52554;1257;1101308;-84
2024/01/09 03:18:11;;;;;;;76.40;28.00;;;;;;;-13.33;78.71;102829.91;52434;1258;1100493;-82
2024/01/09 03:20:56;;;;;;;73.80;27.60;;;;;;;-13.33;78.88;102828.17;52463;1255;1101318;-83
2024/01/09 03:23:42;;;;;;;73.20;27.30;;;;;;;-13.34;78.75;102826.11;52352;1256;1100745;-82
2024/01/09 03:26:27;;;;;;;81.30;27.80;;;;;;;-13.36;79.00;102826.60;52574;1255;1100477;-83
2024/01/09 03:29:16;;;;;;;78.10;28.00;;;;;;;-13.36;78.87;102824.73;52384;1261;1173240;-81
2024/01/09 03:32:03;;;;;;;75.40;29.80;;;;;;;-13.36;78.84;102820.60;52329;1256;1100293;-83
2024/01/09 03:34:49;;;;;;;72.40;25.70;;;;;;;-13.39;78.89;102827.95;52453;1260;1100833;-83
2024/01/09 03:37:36;;;;;;;77.20;28.40;;;;;;;-13.39;78.83;102825.71;52547;1260;1101838;-84
2024/01/09 03:40:22;;;;;;;85.50;30.30;;;;;;;-13.36;78.98;102827.98;52563;1259;1100431;-82
2024/01/09 03:43:08;;;;;;;72.80;27.30;;;;;;;-13.34;78.99;102829.02;52581;1255;1100970;-83
2024/01/09 03:45:54;;;;;;;76.60;27.40;;;;;;;-13.33;78.93;102828.69;52438;1258;1101455;-83
2024/01/09 03:48:40;;;;;;;72.70;27.40;;;;;;;-13.33;78.71;102831.27;52536;1256;1101089;-82
2024/01/09 03:51:26;;;;;;;80.60;28.80;;;;;;;-13.34;78.87;102829.38;52579;1256;1101661;-82
2024/01/09 03:54:12;;;;;;;72.70;27.60;;;;;;;-13.34;78.98;102831.42;52407;1261;1100557;-83
2024/01/09 03:56:58;;;;;;;74.50;28.30;;;;;;;-13.37;78.83;102830.20;52420;1257;1101105;-82
2024/01/09 03:59:44;;;;;;;66.20;28.00;;;;;;;-13.37;78.89;102823.52;52529;1255;1102421;-84
2024/01/09 04:02:30;;;;;;;79.50;29.40;;;;;;;-13.37;78.84;102828.14;52336;1277;1100953;-83
2024/01/09 04:05:16;;;;;;;73.90;28.00;;;;;;;-13.38;79.02;102823.84;52445;1257;1101535;-82
2024/01/09 04:08:02;;;;;;;89.40;31.10;;;;;;;-13.35;79.02;102831.95;52334;1257;1100435;-83
2024/01/09 04:10:48;;;;;;;77.50;28.90;;;;;;;-13.32;79.11;102826.83;52441;1257;1100211;-83
2024/01/09 04:13:34;;;;;;;77.70;29.30;;;;;;;-13.29;79.47;102826.86;52520;1255;1101314;-81
2024/01/09 04:16:19;;;;;;;76.50;28.90;;;;;;;-13.26;79.57;102823.80;52375;1258;1101382;-82
2024/01/09 04:19:05;;;;;;;84.50;31.40;;;;;;;-13.20;80.01;102826.96;52381;1261;1101116;-83
2024/01/09 04:21:51;;;;;;;85.20;32.20;;;;;;;-13.14;80.27;102828.23;52413;1259;1100310;-83
2024/01/09 04:24:36;;;;;;;104.80;37.50;;;;;;;-13.11;80.37;102829.97;52477;1257;1101476;-83
2024/01/09 04:27:22;;;;;;;98.20;36.80;;;;;;;-13.11;80.14;102828.95;52515;1255;1101120;-83
2024/01/09 04:30:09;;;;;;;101.10;39.80;;;;;;;-13.09;80.48;102820.70;52506;1264;1101045;-82
2024/01/09 04:32:55;;;;;;;98.40;36.90;;;;;;;-13.08;80.33;102819.16;52645;1261;1101089;-82
2024/01/09 04:35:40;;;;;;;101.20;38.20;;;;;;;-13.05;80.73;102815.92;52412;1258;1101712;-83
2024/01/09 04:38:26;;;;;;;102.70;35.50;;;;;;;-13.01;80.99;102812.52;52337;1255;1100609;-83
2024/01/09 04:41:16;;;;;;;105.50;37.60;;;;;;;-12.96;80.85;102813.23;52425;1256;1100945;-82
2024/01/09 04:44:02;;;;;;;106.90;39.10;;;;;;;-12.92;81.31;102814.30;52503;1255;1100903;-84
2024/01/09 04:46:48;;;;;;;112.80;39.20;;;;;;;-12.89;81.06;102811.59;52521;1261;1101894;-84
2024/01/09 04:49:33;;;;;;;108.50;39.30;;;;;;;-12.86;80.88;102811.28;52447;1258;1100396;-83
2024/01/09 04:52:19;;;;;;;113.40;39.40;;;;;;;-12.84;80.91;102812.33;52460;1261;1101370;-83
2024/01/09 04:55:05;;;;;;;118.90;42.30;;;;;;;-12.80;81.28;102813.05;52479;1261;1101848;-84
2024/01/09 04:57:51;;;;;;;109.10;38.40;;;;;;;-12.78;81.53;102808.59;52491;1259;1101905;-83
2024/01/09 05:00:36;;;;;;;109.70;39.50;;;;;;;-12.76;81.37;102807.27;52612;1257;1101344;-83
2024/01/09 05:03:22;;;;;;;120.60;41.10;;;;;;;-12.73;81.51;102807.27;52645;1258;1100204;-83
2024/01/09 05:06:08;;;;;;;98.60;38.10;;;;;;;-12.71;81.34;102804.36;52517;1259;1100993;-83
2024/01/09 05:08:54;;;;;;;121.80;43.20;;;;;;;-12.69;81.52;102803.34;52427;1255;1100895;-83
2024/01/09 05:11:40;;;;;;;108.70;40.70;;;;;;;-12.65;81.47;102802.69;52521;1259;1100762;-83
2024/01/09 05:14:26;;;;;;;125.90;46.90;;;;;;;-12.65;81.40;102806.30;52478;1258;1100281;-83
2024/01/09 05:17:12;;;;;;;135.20;44.80;;;;;;;-12.65;81.40;102804.75;52355;1257;1101427;-83
2024/01/09 05:19:58;;;;;;;125.70;43.50;;;;;;;-12.64;81.40;102807.68;52323;1257;1101102;-83
2024/01/09 05:22:45;;;;;;;128.20;45.90;;;;;;;-12.63;81.26;102813.86;52416;1271;1100673;-84
2024/01/09 05:25:31;;;;;;;130.00;48.20;;;;;;;-12.63;81.30;102811.83;52491;1257;1100608;-83
2024/01/09 05:28:16;;;;;;;123.80;44.10;;;;;;;-12.61;80.94;102806.33;52425;1258;1101096;-83
2024/01/09 05:31:02;;;;;;;129.00;44.00;;;;;;;-12.60;81.26;102810.81;52434;1258;1100616;-83
2024/01/09 05:33:48;;;;;;;131.00;46.60;;;;;;;-12.61;81.19;102808.58;52398;1255;1100768;-83
2024/01/09 05:36:34;;;;;;;121.80;42.90;;;;;;;-12.62;80.65;102808.56;52420;1256;1101463;-83
2024/01/09 05:39:20;;;;;;;121.30;44.40;;;;;;;-12.65;80.60;102814.04;52515;1257;1100764;-83
2024/01/09 05:42:07;;;;;;;127.40;46.80;;;;;;;-12.67;80.25;102810.05;52479;1262;1100732;-82
2024/01/09 05:44:53;;;;;;;124.70;45.50;;;;;;;-12.66;80.16;102811.13;52533;1261;1100708;-84
2024/01/09 05:47:38;;;;;;;124.00;45.30;;;;;;;-12.67;79.97;102810.77;52485;1257;1100284;-82
2024/01/09 05:50:24;;;;;;;135.00;48.70;;;;;;;-12.69;79.88;102816.42;52560;1257;1100738;-84
2024/01/09 05:53:11;;;;;;;141.80;50.30;;;;;;;-12.74;79.89;102819.30;52564;1260;1100915;-82
2024/01/09 05:55:56;;;;;;;133.30;48.70;;;;;;;-12.77;79.67;102816.34;52540;1257;1100608;-83
2024/01/09 05:58:42;;;;;;;130.20;48.30;;;;;;;-12.80;79.88;102815.63;52300;1257;1101158;-82
2024/01/09 06:01:28;;;;;;;132.10;48.10;;;;;;;-12.81;79.98;102818.02;52561;1257;1100813;-83
2024/01/09 06:04:13;;;;;;;128.40;48.00;;;;;;;-12.81;80.00;102823.53;52481;1261;1101159;-82
2024/01/09 06:06:59;;;;;;;112.50;40.80;;;;;;;-12.80;79.80;102826.13;52260;1261;1100772;-84
2024/01/09 06:09:45;;;;;;;122.40;42.60;;;;;;;-12.83;79.71;102829.70;52288;1257;1100873;-83
2024/01/09 06:12:31;;;;;;;110.20;40.20;;;;;;;-12.88;79.28;102830.35;52483;1255;1101369;-83
2024/01/09 06:15:17;;;;;;;121.00;43.50;;;;;;;-12.91;79.32;102829.46;52409;1256;1100900;-82
2024/01/09 06:18:03;;;;;;;104.20;38.70;;;;;;;-12.95;79.52;102832.34;52348;1255;1100394;-83
2024/01/09 06:20:48;;;;;;;102.90;38.90;;;;;;;-12.97;79.73;102840.40;52506;1255;1101517;-84
2024/01/09 06:23:35;;;;;;;114.10;41.90;;;;;;;-12.97;79.59;102842.98;52355;1257;1100335;-83
2024/01/09 06:26:21;;;;;;;113.00;42.00;;;;;;;-12.97;79.79;102847.80;52524;1256;1101093;-83
2024/01/09 06:29:08;;;;;;;108.30;40.60;;;;;;;-12.94;79.85;102846.45;52460;1257;1100931;-83
2024/01/09 06:31:54;;;;;;;117.50;40.80;;;;;;;-12.92;79.71;102851.98;52327;1258;1101998;-83
2024/01/09 06:34:39;;;;;;;101.70;37.60;;;;;;;-12.94;79.51;102848.00;52520;1261;1100448;-83
2024/01/09 06:37:25;;;;;;;103.30;39.90;;;;;;;-12.96;79.40;102858.48;52524;1255;1101233;-83
2024/01/09 06:40:11;;;;;;;106.70;38.80;;;;;;;-12.98;79.33;102858.96;52499;1255;1101108;-83
2024/01/09 06:42:57;;;;;;;116.30;37.40;;;;;;;-12.99;79.19;102862.39;52386;1261;1100565;-83
2024/01/09 06:45:43;;;;;;;102.70;35.80;;;;;;;-13.00;79.10;102864.63;52340;1256;1102245;-83
2024/01/09 06:48:29;;;;;;;110.20;36.70;;;;;;;-12.99;79.28;102868.59;52517;1257;1101262;-83
2024/01/09 06:51:15;;;;;;;100.50;38.20;;;;;;;-13.00;79.27;102867.70;52414;1256;1100496;-82
2024/01/09 06:54:01;;;;;;;94.70;37.80;;;;;;;-13.05;79.34;102866.98;52337;1263;1100220;-83
2024/01/09 06:56:46;;;;;;;102.50;36.50;;;;;;;-13.07;79.02;102868.19;52494;1258;1100657;-83
2024/01/09 06:59:32;;;;;;;103.00;37.80;;;;;;;-13.06;79.48;102868.03;52372;1259;1100952;-84
2024/01/09 07:02:18;;;;;;;102.80;39.70;;;;;;;-13.04;79.92;102866.46;52486;1259;1101034;-82
2024/01/09 07:05:04;;;;;;;116.20;39.20;;;;;;;-13.01;80.11;102874.08;52415;1256;1100811;-83
2024/01/09 07:07:50;;;;;;;122.10;42.20;;;;;;;-12.96;80.25;102879.98;52531;1258;1100295;-82
2024/01/09 07:10:36;;;;;;;136.40;48.90;;;;;;;-12.92;80.72;102886.55;52279;1261;1101275;-84
2024/01/09 07:13:22;;;;;;;135.70;53.70;;;;;;;-12.87;80.99;102884.70;52321;1255;1103725;-83
2024/01/09 07:16:08;;;;;;;134.70;53.50;;;;;;;-12.83;81.06;102889.38;52400;1262;1101414;-83
2024/01/09 07:18:54;;;;;;;163.00;58.30;;;;;;;-12.78;81.37;102888.05;52428;1256;1100219;-83
2024/01/09 07:21:39;;;;;;;151.60;54.70;;;;;;;-12.73;81.48;102882.27;52543;1257;1101019;-83
2024/01/09 07:24:25;;;;;;;153.60;57.00;;;;;;;-12.68;81.74;102881.10;52423;1256;1101725;-84
2024/01/09 07:27:12;;;;;;;161.50;61.80;;;;;;;-12.63;81.80;102880.64;52394;1256;1101123;-82
2024/01/09 07:29:57;;;;;;;175.50;63.60;;;;;;;-12.58;82.00;102877.92;52491;1257;1100858;-82
2024/01/09 07:32:43;;;;;;;174.90;64.90;;;;;;;-12.53;82.39;102879.86;52396;1261;1100952;-84
2024/01/09 07:35:34;;;;;;;171.60;62.50;;;;;;;-12.48;82.07;102879.05;52273;1266;1101784;-83
2024/01/09 07:38:24;;;;;;;172.10;62.30;;;;;;;-12.42;82.32;102885.14;52500;1255;1100895;-83
2024/01/09 07:41:11;;;;;;;170.20;63.60;;;;;;;-12.37;83.06;102883.96;52620;1258;1100913;-83
2024/01/09 07:43:57;;;;;;;168.30;64.00;;;;;;;-12.29;83.69;102891.44;52411;1257;1100679;-83
2024/01/09 07:46:43;;;;;;;171.50;64.30;;;;;;;-12.18;84.47;102893.60;52536;1261;1101292;-83
2024/01/09 07:49:30;;;;;;;156.70;62.30;;;;;;;-12.11;84.30;102888.83;52574;1261;1102380;-82
2024/01/09 07:52:16;;;;;;;171.60;66.20;;;;;;;-12.06;84.03;102891.96;52418;1261;1101165;-83
2024/01/09 07:55:03;;;;;;;174.80;64.80;;;;;;;-12.01;84.01;102893.02;52377;1257;1101308;-84
2024/01/09 07:57:49;;;;;;;178.30;65.60;;;;;;;-11.95;84.43;102895.83;52381;1258;1101024;-84
2024/01/09 08:00:34;;;;;;;177.80;64.30;;;;;;;-11.87;84.56;102902.09;52377;1261;1101109;-83
2024/01/09 08:03:20;;;;;;;164.80;63.30;;;;;;;-11.82;84.36;102903.85;52259;1258;1101479;-83
2024/01/09 08:06:15;;;;;;;150.40;61.50;;;;;;;-11.79;84.39;102908.69;52274;1262;1100639;-83
2024/01/09 08:09:00;;;;;;;161.10;57.90;;;;;;;-11.78;84.10;102908.86;52459;1261;1101200;-82
2024/01/09 08:11:47;;;;;;;163.20;63.70;;;;;;;-11.72;85.25;102906.83;52407;1257;1100470;-83
2024/01/09 08:14:32;;;;;;;163.60;65.50;;;;;;;-11.61;85.75;102906.88;52409;1264;1101629;-83
2024/01/09 08:17:19;;;;;;;171.50;70.80;;;;;;;-11.56;85.13;102909.65;52516;1261;1101483;-83
2024/01/09 08:20:06;;;;;;;172.70;71.60;;;;;;;-11.51;85.03;102910.89;52410;1262;1101096;-83
2024/01/09 08:22:52;;;;;;;169.40;69.00;;;;;;;-11.48;84.99;102914.00;52381;1260;1100996;-83
2024/01/09 08:25:37;;;;;;;157.90;62.10;;;;;;;-11.46;84.97;102915.39;52316;1257;1101081;-83
2024/01/09 08:28:23;;;;;;;176.50;68.20;;;;;;;-11.45;84.74;102915.56;52324;1257;1100625;-84
2024/01/09 08:31:09;;;;;;;161.30;62.80;;;;;;;-11.42;85.12;102914.55;52532;1258;1100619;-83
2024/01/09 08:33:55;;;;;;;148.30;59.00;;;;;;;-11.39;85.01;102917.84;52545;1255;1101462;-83
2024/01/09 08:36:43;;;;;;;151.30;62.90;;;;;;;-11.34;85.17;102921.67;52460;1262;1100958;-83
2024/01/09 08:39:28;;;;;;;156.10;61.20;;;;;;;-11.32;84.98;102920.13;52447;1262;1101178;-83
2024/01/09 08:42:14;;;;;;;137.00;56.80;;;;;;;-11.31;85.08;102929.09;52493;1257;1100828;-83
2024/01/09 08:45:00;;;;;;;141.10;56.70;;;;;;;-11.32;85.10;102926.50;52368;1257;1100925;-83
2024/01/09 08:47:46;;;;;;;161.00;66.00;;;;;;;-11.29;85.39;102921.67;52549;1264;1101695;-83
2024/01/09 08:50:32;;;;;;;167.90;63.90;;;;;;;-11.21;85.71;102923.10;52513;1257;1100437;-81
2024/01/09 08:53:17;;;;;;;158.30;66.70;;;;;;;-11.15;85.72;102920.20;52433;1262;1101770;-81
2024/01/09 08:56:03;;;;;;;169.40;66.60;;;;;;;-11.08;86.06;102914.02;52378;1261;1100883;-82
2024/01/09 08:58:51;;;;;;;166.70;65.40;;;;;;;-11.00;86.06;102913.17;52447;1257;1101450;-83
2024/01/09 09:01:37;;;;;;;173.10;69.70;;;;;;;-10.96;86.13;102909.21;52640;1261;1100927;-84
2024/01/09 09:04:23;;;;;;;160.70;69.00;;;;;;;-10.91;85.90;102903.02;52484;1263;1101804;-83
2024/01/09 09:07:09;;;;;;;177.10;73.80;;;;;;;-10.85;86.01;102909.95;52416;1262;1100564;-82
2024/01/09 09:09:55;;;;;;;177.60;77.70;;;;;;;-10.78;86.27;102910.48;52575;1264;1101162;-82
2024/01/09 09:12:40;;;;;;;177.20;71.60;;;;;;;-10.71;86.29;102908.94;52253;1256;1100643;-83
2024/01/09 09:15:26;;;;;;;169.70;72.50;;;;;;;-10.66;86.34;102910.34;52374;1258;1102408;-83
2024/01/09 09:18:13;;;;;;;133.80;57.50;;;;;;;-10.60;86.23;102904.65;52361;1263;1100784;-83
2024/01/09 09:21:01;;;;;;;147.20;57.40;;;;;;;-10.55;86.49;102905.88;52510;1261;1100507;-83
2024/01/09 09:23:47;;;;;;;175.30;68.50;;;;;;;-10.49;86.12;102910.19;52440;1269;1101173;-82
2024/01/09 09:26:33;;;;;;;159.40;66.00;;;;;;;-10.44;86.37;102910.21;52646;1258;1101419;-83
2024/01/09 09:29:19;;;;;;;144.20;62.00;;;;;;;-10.36;86.60;102908.65;52452;1258;1101964;-83
2024/01/09 09:32:05;;;;;;;160.90;66.30;;;;;;;-10.28;86.79;102911.77;52327;1271;1101896;-83
2024/01/09 09:34:51;;;;;;;139.30;59.60;;;;;;;-10.23;86.55;102908.66;52293;1258;1102114;-83
2024/01/09 09:37:36;;;;;;;148.20;67.20;;;;;;;-10.12;87.45;102905.52;52523;1261;1101684;-83
2024/01/09 09:40:22;;;;;;;156.80;65.70;;;;;;;-10.02;87.68;102899.98;52387;1257;1100555;-82
2024/01/09 09:43:15;;;;;;;133.00;58.20;;;;;;;-9.95;87.14;102898.06;52517;1258;1100706;-81
2024/01/09 09:46:03;;;;;;;142.10;58.20;;;;;;;-9.88;86.49;102902.38;52339;1258;1101476;-85
2024/01/09 09:48:54;;;;;;;134.10;55.80;;;;;;;-9.83;86.47;102901.69;52385;1262;1101717;-83
2024/01/09 09:51:40;;;;;;;143.20;56.50;;;;;;;-9.80;86.00;102896.84;52588;1257;1100942;-81
2024/01/09 09:54:26;;;;;;;142.30;57.90;;;;;;;-9.74;86.17;102899.94;52379;1258;1100961;-83
2024/01/09 09:57:12;;;;;;;128.30;52.40;;;;;;;-9.68;85.99;102896.80;52272;1257;1100430;-82
2024/01/09 09:59:58;;;;;;;117.40;49.60;;;;;;;-9.63;85.94;102897.66;52338;1256;1100951;-83
2024/01/09 10:02:49;;;;;;;142.10;57.30;;;;;;;-9.60;85.82;102897.14;52534;1261;1101134;-82
2024/01/09 10:05:41;;;;;;;130.20;51.20;;;;;;;-9.53;86.47;102895.58;52346;1269;1100620;-82
2024/01/09 10:08:28;;;;;;;132.10;55.90;;;;;;;-9.36;87.66;102888.42;52316;1262;1100514;-83
2024/01/09 10:11:14;;;;;;;142.90;60.10;;;;;;;-9.28;86.90;102885.11;52422;1257;1100860;-82
2024/01/09 10:14:00;;;;;;;149.20;63.90;;;;;;;-9.23;86.01;102877.66;52471;1257;1110438;-82
2024/01/09 10:16:56;;;;;;;121.90;52.20;;;;;;;-9.19;86.12;102880.23;52564;1258;1101186;-83
2024/01/09 10:19:44;;;;;;;127.80;51.20;;;;;;;-9.14;86.28;102880.72;52482;1260;1101294;-83
2024/01/09 10:22:35;;;;;;;132.10;52.60;;;;;;;-9.08;86.07;102880.52;52365;1260;1100943;-82
2024/01/09 10:25:21;;;;;;;116.90;49.80;;;;;;;-9.03;86.17;102875.65;52510;1257;1101227;-85
2024/01/09 10:28:15;;;;;;;132.00;53.30;;;;;;;-8.96;85.82;102876.46;52407;1257;1101655;-83
2024/01/09 10:31:06;;;;;;;129.20;51.70;;;;;;;-8.89;85.69;102878.34;52512;1258;1100651;-82
2024/01/09 10:33:54;;;;;;;122.00;51.40;;;;;;;-8.83;85.24;102872.42;52388;1257;1101565;-83
2024/01/09 10:36:40;;;;;;;130.20;51.30;;;;;;;-8.79;85.21;102866.85;52281;1258;1100725;-82
2024/01/09 10:39:26;;;;;;;133.80;55.30;;;;;;;-8.74;85.05;102867.86;52344;1261;1100305;-83
2024/01/09 10:42:12;;;;;;;141.60;57.90;;;;;;;-8.69;85.17;102869.04;52411;1257;1101326;-82
2024/01/09 10:44:58;;;;;;;128.60;56.00;;;;;;;-8.64;84.95;102860.52;52556;1257;1100587;-83
2024/01/09 10:47:44;;;;;;;120.50;53.10;;;;;;;-8.59;84.73;102863.77;52460;1260;1101098;-83
2024/01/09 10:50:30;;;;;;;126.60;54.10;;;;;;;-8.55;84.46;102865.48;52460;1257;1101250;-82
2024/01/09 10:53:22;;;;;;;134.50;54.60;;;;;;;-8.51;84.19;102859.73;52434;1257;1101575;-81
2024/01/09 10:56:09;;;;;;;124.80;55.10;;;;;;;-8.48;84.34;102856.06;52339;1258;1100734;-83
2024/01/09 10:58:57;;;;;;;132.60;55.50;;;;;;;-8.43;84.06;102859.33;52317;1255;1101159;-83
2024/01/09 11:01:43;;;;;;;139.50;55.30;;;;;;;-8.37;84.40;102855.30;52431;1257;1100596;-83
2024/01/09 11:04:29;;;;;;;126.90;56.00;;;;;;;-8.33;84.30;102854.22;52416;1257;1100983;-83
2024/01/09 11:07:16;;;;;;;120.40;52.20;;;;;;;-8.28;84.46;102850.72;52460;1256;1101005;-84
2024/01/09 11:10:04;;;;;;;115.20;48.90;;;;;;;-8.21;84.26;102849.91;52324;1257;1101485;-84
2024/01/09 11:12:52;;;;;;;127.40;51.00;;;;;;;-8.17;84.05;102847.48;52407;1257;1101439;-84
2024/01/09 11:15:44;;;;;;;115.10;49.00;;;;;;;-8.12;83.70;102846.02;52592;1261;1100337;-83
2024/01/09 11:18:32;;;;;;;135.70;59.20;;;;;;;-8.07;83.63;102842.34;52389;1264;1100830;-82
2024/01/09 11:21:26;;;;;;;119.20;49.90;;;;;;;-7.98;84.39;102844.49;52359;1257;1100747;-83
2024/01/09 11:24:12;;;;;;;129.90;51.70;;;;;;;-7.91;84.10;102836.44;52445;1257;1103403;-83
2024/01/09 11:27:12;;;;;;;116.50;48.30;;;;;;;-7.85;83.75;102833.81;52482;1258;1101573;-82
2024/01/09 11:30:05;;;;;;;105.80;45.60;;;;;;;-7.80;83.63;102827.85;52588;1257;1101724;-83
2024/01/09 11:32:51;;;;;;;98.10;42.50;;;;;;;-7.77;83.26;102819.65;52244;1260;1100838;-82
2024/01/09 11:35:37;;;;;;;123.40;52.50;;;;;;;-7.72;83.16;102818.23;52330;1261;1101441;-83
2024/01/09 11:38:23;;;;;;;116.60;49.10;;;;;;;-7.68;83.01;102822.85;52311;1257;1101643;-83
2024/01/09 11:41:09;;;;;;;122.80;49.90;;;;;;;-7.63;83.47;102817.42;52377;1258;1100532;-83
2024/01/09 11:44:07;;;;;;;121.20;52.80;;;;;;;-7.58;83.09;102818.40;52395;1255;1100801;-83
2024/01/09 11:46:53;;;;;;;113.50;47.30;;;;;;;-7.53;83.05;102818.52;52482;1257;1101829;-83
2024/01/09 11:49:38;;;;;;;119.70;51.60;;;;;;;-7.49;83.00;102816.55;52546;1256;1101259;-82
2024/01/09 11:52:26;;;;;;;124.60;54.70;;;;;;;-7.44;83.12;102816.31;52421;1256;1101777;-83
2024/01/09 11:55:14;;;;;;;123.40;52.90;;;;;;;-7.40;83.00;102813.15;52443;1257;1101223;-82
2024/01/09 11:58:00;;;;;;;120.30;47.40;;;;;;;-7.34;83.38;102815.33;52522;1258;1101243;-84
2024/01/09 12:00:46;;;;;;;131.70;52.20;;;;;;;-7.26;83.42;102807.58;52501;1257;1101698;-82
2024/01/09 12:03:33;;;;;;;151.00;58.50;;;;;;;-7.21;82.69;102811.69;52501;1257;1101603;-83
2024/01/09 12:06:21;;;;;;;113.50;47.80;;;;;;;-7.17;82.50;102809.89;52381;1257;1100945;-82
2024/01/09 12:09:09;;;;;;;118.20;52.20;;;;;;;-7.14;82.15;102810.54;52277;1257;1100908;-82